Nebraska City, Nebraska
Current Conditions -  °F | °C
As of 10:15 AM on Thursday 29 Jan 2015 (Local Time) from KAFK Reporting Station
Overcast Overcast  
Wind Chill: 26°   Ceiling: 2700
Heat Index: 38°   Visibility: 10mi
Dew Point: 24°   Wind: 28mph
Humidity: 59%   Direction: 350°N
Pressure: 30.34"   Gusts: 39mph
Location:  40.68°N, 95.86°W
Report Text: KAFK 291615Z AUTO 35024G34KT 10SM OVC027 03/M04 A3034 RMK AO2 T00311042
Loading
Personal Weather Stations






























Interactive Weather Map New forecast layout! Learn more

10-Day Weather Forecast

Advertisements
Track Severe Weather on mobile